sensor_id;sensor_type;location;lat;lon;timestamp;P1;durP1;ratioP1;P2;durP2;ratioP2
7527;SDS011;3805;49.006;8.514;2023-03-29T00:01:59;3.57;;;3.27;;
7527;SDS011;3805;49.006;8.514;2023-03-29T00:04:48;3.50;;;3.23;;
7527;SDS011;3805;49.006;8.514;2023-03-29T00:07:39;5.57;;;3.93;;
7527;SDS011;3805;49.006;8.514;2023-03-29T00:10:28;4.60;;;3.93;;
7527;SDS011;3805;49.006;8.514;2023-03-29T00:13:18;4.30;;;3.23;;
7527;SDS011;3805;49.006;8.514;2023-03-29T00:16:07;3.77;;;3.47;;
7527;SDS011;3805;49.006;8.514;2023-03-29T00:18:57;3.90;;;3.60;;
7527;SDS011;3805;49.006;8.514;2023-03-29T00:21:45;3.77;;;3.47;;
7527;SDS011;3805;49.006;8.514;2023-03-29T00:24:34;3.87;;;3.50;;
7527;SDS011;3805;49.006;8.514;2023-03-29T00:27:22;3.20;;;3.00;;
7527;SDS011;3805;49.006;8.514;2023-03-29T00:30:11;3.83;;;3.37;;
7527;SDS011;3805;49.006;8.514;2023-03-29T00:33:00;5.13;;;3.47;;
7527;SDS011;3805;49.006;8.514;2023-03-29T00:35:51;3.53;;;3.33;;
7527;SDS011;3805;49.006;8.514;2023-03-29T00:38:40;3.23;;;2.93;;
7527;SDS011;3805;49.006;8.514;2023-03-29T00:41:29;3.70;;;3.40;;
7527;SDS011;3805;49.006;8.514;2023-03-29T00:47:43;6.03;;;3.77;;
7527;SDS011;3805;49.006;8.514;2023-03-29T00:50:34;3.23;;;2.90;;
7527;SDS011;3805;49.006;8.514;2023-03-29T00:53:28;3.50;;;3.30;;
7527;SDS011;3805;49.006;8.514;2023-03-29T00:56:20;4.70;;;3.60;;
7527;SDS011;3805;49.006;8.514;2023-03-29T00:59:11;3.77;;;3.33;;
7527;SDS011;3805;49.006;8.514;2023-03-29T01:02:02;3.90;;;3.50;;
7527;SDS011;3805;49.006;8.514;2023-03-29T01:04:52;6.60;;;3.90;;
7527;SDS011;3805;49.006;8.514;2023-03-29T01:07:44;3.47;;;3.17;;
7527;SDS011;3805;49.006;8.514;2023-03-29T01:10:38;3.17;;;2.97;;
7527;SDS011;3805;49.006;8.514;2023-03-29T01:13:31;4.57;;;3.13;;
7527;SDS011;3805;49.006;8.514;2023-03-29T01:16:23;3.10;;;2.90;;
7527;SDS011;3805;49.006;8.514;2023-03-29T01:19:12;2.70;;;2.50;;
7527;SDS011;3805;49.006;8.514;2023-03-29T01:22:07;2.93;;;2.73;;
7527;SDS011;3805;49.006;8.514;2023-03-29T01:25:03;2.97;;;2.63;;
7527;SDS011;3805;49.006;8.514;2023-03-29T01:27:58;3.53;;;3.23;;
7527;SDS011;3805;49.006;8.514;2023-03-29T01:30:51;3.57;;;3.37;;
7527;SDS011;3805;49.006;8.514;2023-03-29T01:33:43;3.40;;;2.83;;
7527;SDS011;3805;49.006;8.514;2023-03-29T01:36:34;2.97;;;2.77;;
7527;SDS011;3805;49.006;8.514;2023-03-29T01:39:26;4.00;;;3.10;;
7527;SDS011;3805;49.006;8.514;2023-03-29T01:42:17;2.50;;;2.30;;
7527;SDS011;3805;49.006;8.514;2023-03-29T01:45:16;3.47;;;3.17;;
7527;SDS011;3805;49.006;8.514;2023-03-29T01:48:09;3.33;;;2.60;;
7527;SDS011;3805;49.006;8.514;2023-03-29T01:51:03;2.97;;;2.77;;
7527;SDS011;3805;49.006;8.514;2023-03-29T01:53:55;2.50;;;2.30;;
7527;SDS011;3805;49.006;8.514;2023-03-29T01:56:46;3.50;;;3.20;;
7527;SDS011;3805;49.006;8.514;2023-03-29T01:59:37;3.77;;;3.20;;
7527;SDS011;3805;49.006;8.514;2023-03-29T02:02:29;3.70;;;3.40;;
7527;SDS011;3805;49.006;8.514;2023-03-29T02:05:18;3.57;;;3.30;;
7527;SDS011;3805;49.006;8.514;2023-03-29T02:08:08;3.03;;;2.73;;
7527;SDS011;3805;49.006;8.514;2023-03-29T02:10:59;2.70;;;2.50;;
7527;SDS011;3805;49.006;8.514;2023-03-29T02:13:48;3.50;;;3.20;;
7527;SDS011;3805;49.006;8.514;2023-03-29T02:16:37;3.83;;;3.53;;
7527;SDS011;3805;49.006;8.514;2023-03-29T02:19:27;3.00;;;2.70;;
7527;SDS011;3805;49.006;8.514;2023-03-29T02:22:17;3.80;;;2.70;;
7527;SDS011;3805;49.006;8.514;2023-03-29T02:25:09;2.77;;;2.50;;
7527;SDS011;3805;49.006;8.514;2023-03-29T02:27:58;3.10;;;2.90;;
7527;SDS011;3805;49.006;8.514;2023-03-29T02:30:49;3.20;;;2.53;;
7527;SDS011;3805;49.006;8.514;2023-03-29T02:33:42;7.83;;;3.30;;
7527;SDS011;3805;49.006;8.514;2023-03-29T02:36:35;3.17;;;2.87;;
7527;SDS011;3805;49.006;8.514;2023-03-29T02:39:27;3.60;;;2.90;;
7527;SDS011;3805;49.006;8.514;2023-03-29T02:42:17;2.83;;;2.63;;
7527;SDS011;3805;49.006;8.514;2023-03-29T02:45:07;2.87;;;2.67;;
7527;SDS011;3805;49.006;8.514;2023-03-29T02:47:56;3.50;;;3.20;;
7527;SDS011;3805;49.006;8.514;2023-03-29T02:50:48;3.40;;;3.10;;
7527;SDS011;3805;49.006;8.514;2023-03-29T02:53:40;4.30;;;3.27;;
7527;SDS011;3805;49.006;8.514;2023-03-29T02:56:31;3.03;;;2.83;;
7527;SDS011;3805;49.006;8.514;2023-03-29T02:59:29;4.27;;;2.90;;
7527;SDS011;3805;49.006;8.514;2023-03-29T03:02:17;3.43;;;3.13;;
7527;SDS011;3805;49.006;8.514;2023-03-29T03:05:06;3.47;;;3.17;;
7527;SDS011;3805;49.006;8.514;2023-03-29T03:07:55;3.07;;;2.80;;
7527;SDS011;3805;49.006;8.514;2023-03-29T03:10:46;5.30;;;3.73;;
7527;SDS011;3805;49.006;8.514;2023-03-29T03:13:35;3.07;;;2.73;;
7527;SDS011;3805;49.006;8.514;2023-03-29T03:16:23;4.03;;;3.30;;
7527;SDS011;3805;49.006;8.514;2023-03-29T03:19:12;3.73;;;3.43;;
7527;SDS011;3805;49.006;8.514;2023-03-29T03:22:01;3.20;;;2.97;;
7527;SDS011;3805;49.006;8.514;2023-03-29T03:24:52;3.43;;;2.63;;
7527;SDS011;3805;49.006;8.514;2023-03-29T03:27:43;3.63;;;3.23;;
7527;SDS011;3805;49.006;8.514;2023-03-29T03:30:31;3.50;;;3.30;;
7527;SDS011;3805;49.006;8.514;2023-03-29T03:33:20;3.50;;;3.20;;
7527;SDS011;3805;49.006;8.514;2023-03-29T03:36:10;3.50;;;3.20;;
7527;SDS011;3805;49.006;8.514;2023-03-29T03:38:58;4.33;;;4.03;;
7527;SDS011;3805;49.006;8.514;2023-03-29T03:41:47;3.30;;;3.10;;
7527;SDS011;3805;49.006;8.514;2023-03-29T03:44:37;6.70;;;3.70;;
7527;SDS011;3805;49.006;8.514;2023-03-29T03:47:26;6.20;;;3.53;;
7527;SDS011;3805;49.006;8.514;2023-03-29T03:50:15;3.63;;;3.30;;
7527;SDS011;3805;49.006;8.514;2023-03-29T03:53:04;3.33;;;2.60;;
7527;SDS011;3805;49.006;8.514;2023-03-29T03:55:53;3.67;;;3.37;;
7527;SDS011;3805;49.006;8.514;2023-03-29T03:58:42;4.50;;;4.20;;
7527;SDS011;3805;49.006;8.514;2023-03-29T04:01:33;6.13;;;4.83;;
7527;SDS011;3805;49.006;8.514;2023-03-29T04:04:23;5.33;;;4.83;;
7527;SDS011;3805;49.006;8.514;2023-03-29T04:07:12;3.40;;;3.20;;
7527;SDS011;3805;49.006;8.514;2023-03-29T04:10:04;3.97;;;3.67;;
7527;SDS011;3805;49.006;8.514;2023-03-29T04:12:54;3.63;;;3.33;;
7527;SDS011;3805;49.006;8.514;2023-03-29T04:15:43;4.27;;;3.97;;
7527;SDS011;3805;49.006;8.514;2023-03-29T04:18:33;3.87;;;3.57;;
7527;SDS011;3805;49.006;8.514;2023-03-29T04:21:22;4.93;;;4.57;;
7527;SDS011;3805;49.006;8.514;2023-03-29T04:24:10;4.30;;;4.00;;
7527;SDS011;3805;49.006;8.514;2023-03-29T04:26:59;4.13;;;3.83;;
7527;SDS011;3805;49.006;8.514;2023-03-29T04:29:48;6.07;;;4.63;;
7527;SDS011;3805;49.006;8.514;2023-03-29T04:32:36;4.33;;;3.97;;
7527;SDS011;3805;49.006;8.514;2023-03-29T04:35:26;4.73;;;4.30;;
7527;SDS011;3805;49.006;8.514;2023-03-29T04:38:15;4.70;;;4.30;;
7527;SDS011;3805;49.006;8.514;2023-03-29T04:41:03;5.43;;;4.93;;
7527;SDS011;3805;49.006;8.514;2023-03-29T04:43:52;4.20;;;3.80;;
7527;SDS011;3805;49.006;8.514;2023-03-29T04:46:42;4.50;;;4.13;;
7527;SDS011;3805;49.006;8.514;2023-03-29T04:49:30;4.13;;;3.77;;
7527;SDS011;3805;49.006;8.514;2023-03-29T04:52:20;3.90;;;3.40;;
7527;SDS011;3805;49.006;8.514;2023-03-29T04:55:10;4.33;;;4.03;;
7527;SDS011;3805;49.006;8.514;2023-03-29T04:57:59;4.20;;;3.80;;
7527;SDS011;3805;49.006;8.514;2023-03-29T05:00:48;4.50;;;4.10;;
7527;SDS011;3805;49.006;8.514;2023-03-29T05:03:37;3.90;;;3.60;;
7527;SDS011;3805;49.006;8.514;2023-03-29T05:06:26;4.03;;;3.73;;
7527;SDS011;3805;49.006;8.514;2023-03-29T05:09:16;4.73;;;4.30;;
7527;SDS011;3805;49.006;8.514;2023-03-29T05:12:05;5.63;;;5.17;;
7527;SDS011;3805;49.006;8.514;2023-03-29T05:14:54;5.07;;;4.50;;
7527;SDS011;3805;49.006;8.514;2023-03-29T05:17:42;5.07;;;4.70;;
7527;SDS011;3805;49.006;8.514;2023-03-29T05:20:31;5.30;;;4.10;;
7527;SDS011;3805;49.006;8.514;2023-03-29T05:23:19;5.03;;;4.63;;
7527;SDS011;3805;49.006;8.514;2023-03-29T05:26:09;6.70;;;5.10;;
7527;SDS011;3805;49.006;8.514;2023-03-29T05:29:01;5.17;;;4.67;;
7527;SDS011;3805;49.006;8.514;2023-03-29T05:31:50;4.70;;;4.33;;
7527;SDS011;3805;49.006;8.514;2023-03-29T05:34:39;5.10;;;4.70;;
7527;SDS011;3805;49.006;8.514;2023-03-29T05:37:28;5.63;;;5.13;;
7527;SDS011;3805;49.006;8.514;2023-03-29T05:40:17;5.10;;;4.77;;
7527;SDS011;3805;49.006;8.514;2023-03-29T05:43:07;5.50;;;5.10;;
7527;SDS011;3805;49.006;8.514;2023-03-29T05:45:56;4.80;;;4.40;;
7527;SDS011;3805;49.006;8.514;2023-03-29T05:48:45;4.80;;;4.40;;
7527;SDS011;3805;49.006;8.514;2023-03-29T05:51:33;5.20;;;4.80;;
7527;SDS011;3805;49.006;8.514;2023-03-29T05:54:22;8.10;;;5.17;;
7527;SDS011;3805;49.006;8.514;2023-03-29T05:57:11;5.50;;;5.00;;
7527;SDS011;3805;49.006;8.514;2023-03-29T06:00:00;5.80;;;5.20;;
7527;SDS011;3805;49.006;8.514;2023-03-29T06:02:52;8.00;;;5.47;;
7527;SDS011;3805;49.006;8.514;2023-03-29T06:05:56;4.83;;;4.53;;
7527;SDS011;3805;49.006;8.514;2023-03-29T06:08:45;5.83;;;5.30;;
7527;SDS011;3805;49.006;8.514;2023-03-29T06:11:34;6.30;;;5.30;;
7527;SDS011;3805;49.006;8.514;2023-03-29T06:14:23;4.60;;;4.20;;
7527;SDS011;3805;49.006;8.514;2023-03-29T06:17:14;6.40;;;5.07;;
7527;SDS011;3805;49.006;8.514;2023-03-29T06:20:04;4.77;;;4.40;;
7527;SDS011;3805;49.006;8.514;2023-03-29T06:22:56;5.30;;;4.80;;
7527;SDS011;3805;49.006;8.514;2023-03-29T06:25:45;5.70;;;5.23;;
7527;SDS011;3805;49.006;8.514;2023-03-29T06:28:34;4.67;;;4.20;;
7527;SDS011;3805;49.006;8.514;2023-03-29T06:31:23;5.00;;;4.50;;
7527;SDS011;3805;49.006;8.514;2023-03-29T06:34:13;5.47;;;4.80;;
7527;SDS011;3805;49.006;8.514;2023-03-29T06:37:03;5.87;;;5.50;;
7527;SDS011;3805;49.006;8.514;2023-03-29T06:39:52;5.97;;;5.30;;
7527;SDS011;3805;49.006;8.514;2023-03-29T06:42:41;5.90;;;5.43;;
7527;SDS011;3805;49.006;8.514;2023-03-29T06:45:31;6.07;;;5.47;;
7527;SDS011;3805;49.006;8.514;2023-03-29T06:48:21;5.43;;;5.03;;
7527;SDS011;3805;49.006;8.514;2023-03-29T06:51:11;5.77;;;5.30;;
7527;SDS011;3805;49.006;8.514;2023-03-29T06:53:59;6.13;;;5.60;;
7527;SDS011;3805;49.006;8.514;2023-03-29T06:56:48;6.50;;;5.83;;
7527;SDS011;3805;49.006;8.514;2023-03-29T06:59:36;8.00;;;4.40;;
7527;SDS011;3805;49.006;8.514;2023-03-29T07:02:25;5.20;;;4.70;;
7527;SDS011;3805;49.006;8.514;2023-03-29T07:05:15;6.13;;;5.53;;
7527;SDS011;3805;49.006;8.514;2023-03-29T07:08:05;5.93;;;5.43;;
7527;SDS011;3805;49.006;8.514;2023-03-29T07:11:00;5.93;;;5.43;;
7527;SDS011;3805;49.006;8.514;2023-03-29T07:13:49;5.63;;;5.13;;
7527;SDS011;3805;49.006;8.514;2023-03-29T07:16:38;6.50;;;5.93;;
7527;SDS011;3805;49.006;8.514;2023-03-29T07:19:27;5.07;;;4.70;;
7527;SDS011;3805;49.006;8.514;2023-03-29T07:22:16;5.90;;;5.40;;
7527;SDS011;3805;49.006;8.514;2023-03-29T07:25:07;7.30;;;6.60;;
7527;SDS011;3805;49.006;8.514;2023-03-29T07:27:56;6.90;;;6.00;;
7527;SDS011;3805;49.006;8.514;2023-03-29T07:30:45;12.50;;;6.60;;
7527;SDS011;3805;49.006;8.514;2023-03-29T07:33:33;6.57;;;6.00;;
7527;SDS011;3805;49.006;8.514;2023-03-29T07:36:22;6.70;;;6.10;;
7527;SDS011;3805;49.006;8.514;2023-03-29T07:39:11;7.67;;;6.77;;
7527;SDS011;3805;49.006;8.514;2023-03-29T07:42:02;7.50;;;6.30;;
7527;SDS011;3805;49.006;8.514;2023-03-29T07:44:51;6.60;;;5.93;;
7527;SDS011;3805;49.006;8.514;2023-03-29T07:47:40;7.47;;;5.80;;
7527;SDS011;3805;49.006;8.514;2023-03-29T07:50:28;8.20;;;6.03;;
7527;SDS011;3805;49.006;8.514;2023-03-29T07:53:18;6.73;;;6.13;;
7527;SDS011;3805;49.006;8.514;2023-03-29T07:56:07;6.90;;;6.17;;
7527;SDS011;3805;49.006;8.514;2023-03-29T07:58:57;7.70;;;6.77;;
7527;SDS011;3805;49.006;8.514;2023-03-29T08:01:46;9.80;;;7.63;;
7527;SDS011;3805;49.006;8.514;2023-03-29T08:04:34;7.00;;;6.30;;
7527;SDS011;3805;49.006;8.514;2023-03-29T08:07:23;7.63;;;6.40;;
7527;SDS011;3805;49.006;8.514;2023-03-29T08:10:20;8.17;;;5.70;;
7527;SDS011;3805;49.006;8.514;2023-03-29T08:13:09;10.80;;;5.93;;
7527;SDS011;3805;49.006;8.514;2023-03-29T08:15:59;6.43;;;5.90;;
7527;SDS011;3805;49.006;8.514;2023-03-29T08:18:48;8.80;;;5.83;;
7527;SDS011;3805;49.006;8.514;2023-03-29T08:21:37;9.87;;;6.33;;
7527;SDS011;3805;49.006;8.514;2023-03-29T08:24:25;7.10;;;5.97;;
7527;SDS011;3805;49.006;8.514;2023-03-29T08:27:14;6.03;;;5.43;;
7527;SDS011;3805;49.006;8.514;2023-03-29T08:30:03;6.70;;;5.50;;
7527;SDS011;3805;49.006;8.514;2023-03-29T08:32:55;6.33;;;5.83;;
7527;SDS011;3805;49.006;8.514;2023-03-29T08:35:44;6.60;;;6.00;;
7527;SDS011;3805;49.006;8.514;2023-03-29T08:38:32;6.20;;;5.60;;
7527;SDS011;3805;49.006;8.514;2023-03-29T08:41:26;7.07;;;5.77;;
7527;SDS011;3805;49.006;8.514;2023-03-29T08:44:22;6.93;;;6.17;;
7527;SDS011;3805;49.006;8.514;2023-03-29T08:47:17;6.03;;;5.53;;
7527;SDS011;3805;49.006;8.514;2023-03-29T08:50:10;6.60;;;5.57;;
7527;SDS011;3805;49.006;8.514;2023-03-29T08:53:01;6.40;;;5.90;;
7527;SDS011;3805;49.006;8.514;2023-03-29T08:55:51;7.77;;;5.47;;
7527;SDS011;3805;49.006;8.514;2023-03-29T08:58:42;6.40;;;5.80;;
7527;SDS011;3805;49.006;8.514;2023-03-29T09:01:33;5.70;;;5.27;;
7527;SDS011;3805;49.006;8.514;2023-03-29T09:04:23;5.60;;;5.03;;
7527;SDS011;3805;49.006;8.514;2023-03-29T09:07:15;8.30;;;5.47;;
7527;SDS011;3805;49.006;8.514;2023-03-29T09:10:04;9.30;;;5.70;;
7527;SDS011;3805;49.006;8.514;2023-03-29T09:12:57;6.90;;;6.20;;
7527;SDS011;3805;49.006;8.514;2023-03-29T09:15:53;5.50;;;4.90;;
7527;SDS011;3805;49.006;8.514;2023-03-29T09:18:50;7.00;;;5.30;;
7527;SDS011;3805;49.006;8.514;2023-03-29T09:21:43;5.10;;;4.57;;
7527;SDS011;3805;49.006;8.514;2023-03-29T09:27:45;5.80;;;4.60;;
7527;SDS011;3805;49.006;8.514;2023-03-29T09:30:37;5.33;;;3.90;;
7527;SDS011;3805;49.006;8.514;2023-03-29T09:33:28;7.00;;;3.93;;
7527;SDS011;3805;49.006;8.514;2023-03-29T09:36:21;9.40;;;4.33;;
7527;SDS011;3805;49.006;8.514;2023-03-29T09:39:12;4.57;;;4.17;;
7527;SDS011;3805;49.006;8.514;2023-03-29T09:42:04;4.00;;;3.67;;
7527;SDS011;3805;49.006;8.514;2023-03-29T09:44:55;4.63;;;3.30;;
7527;SDS011;3805;49.006;8.514;2023-03-29T09:47:48;3.57;;;3.27;;
7527;SDS011;3805;49.006;8.514;2023-03-29T09:50:40;7.37;;;3.37;;
7527;SDS011;3805;49.006;8.514;2023-03-29T09:53:29;7.20;;;4.00;;
7527;SDS011;3805;49.006;8.514;2023-03-29T09:56:18;3.90;;;3.33;;
7527;SDS011;3805;49.006;8.514;2023-03-29T09:59:10;3.50;;;3.20;;
7527;SDS011;3805;49.006;8.514;2023-03-29T10:02:05;3.27;;;2.97;;
7527;SDS011;3805;49.006;8.514;2023-03-29T10:04:54;3.20;;;3.00;;
7527;SDS011;3805;49.006;8.514;2023-03-29T10:07:48;3.50;;;2.83;;
7527;SDS011;3805;49.006;8.514;2023-03-29T10:10:38;7.13;;;3.53;;
7527;SDS011;3805;49.006;8.514;2023-03-29T10:13:28;4.97;;;3.53;;
7527;SDS011;3805;49.006;8.514;2023-03-29T10:16:19;3.70;;;3.40;;
7527;SDS011;3805;49.006;8.514;2023-03-29T10:19:14;4.77;;;4.43;;
7527;SDS011;3805;49.006;8.514;2023-03-29T10:22:05;3.20;;;3.00;;
7527;SDS011;3805;49.006;8.514;2023-03-29T10:24:55;5.10;;;3.20;;
7527;SDS011;3805;49.006;8.514;2023-03-29T10:27:44;5.13;;;2.70;;
7527;SDS011;3805;49.006;8.514;2023-03-29T10:30:34;5.60;;;3.57;;
7527;SDS011;3805;49.006;8.514;2023-03-29T10:33:28;5.13;;;3.50;;
7527;SDS011;3805;49.006;8.514;2023-03-29T10:36:18;4.90;;;3.13;;
7527;SDS011;3805;49.006;8.514;2023-03-29T10:39:08;4.80;;;2.87;;
7527;SDS011;3805;49.006;8.514;2023-03-29T10:41:57;6.37;;;3.07;;
7527;SDS011;3805;49.006;8.514;2023-03-29T10:44:51;3.80;;;2.97;;
7527;SDS011;3805;49.006;8.514;2023-03-29T10:47:40;2.70;;;2.50;;
7527;SDS011;3805;49.006;8.514;2023-03-29T10:50:34;3.07;;;2.77;;
7527;SDS011;3805;49.006;8.514;2023-03-29T10:53:24;3.27;;;2.97;;
7527;SDS011;3805;49.006;8.514;2023-03-29T10:56:22;2.87;;;2.57;;
7527;SDS011;3805;49.006;8.514;2023-03-29T10:59:26;3.93;;;3.07;;
7527;SDS011;3805;49.006;8.514;2023-03-29T11:05:43;3.47;;;2.33;;
7527;SDS011;3805;49.006;8.514;2023-03-29T11:08:38;4.30;;;3.00;;
7527;SDS011;3805;49.006;8.514;2023-03-29T11:15:06;3.23;;;2.93;;
7527;SDS011;3805;49.006;8.514;2023-03-29T11:18:09;3.97;;;2.50;;
7527;SDS011;3805;49.006;8.514;2023-03-29T11:21:20;2.77;;;2.57;;
7527;SDS011;3805;49.006;8.514;2023-03-29T11:27:34;2.70;;;2.50;;
7527;SDS011;3805;49.006;8.514;2023-03-29T11:30:27;4.20;;;2.73;;
7527;SDS011;3805;49.006;8.514;2023-03-29T11:33:25;3.03;;;2.33;;
7527;SDS011;3805;49.006;8.514;2023-03-29T11:36:22;3.23;;;2.40;;
7527;SDS011;3805;49.006;8.514;2023-03-29T11:39:14;2.50;;;2.27;;
7527;SDS011;3805;49.006;8.514;2023-03-29T11:42:06;4.03;;;2.07;;
7527;SDS011;3805;49.006;8.514;2023-03-29T11:44:59;4.57;;;2.77;;
7527;SDS011;3805;49.006;8.514;2023-03-29T11:47:50;2.97;;;2.20;;
7527;SDS011;3805;49.006;8.514;2023-03-29T11:50:41;2.00;;;1.90;;
7527;SDS011;3805;49.006;8.514;2023-03-29T11:53:34;4.30;;;2.80;;
7527;SDS011;3805;49.006;8.514;2023-03-29T11:56:30;2.30;;;2.10;;
7527;SDS011;3805;49.006;8.514;2023-03-29T11:59:22;3.20;;;2.57;;
7527;SDS011;3805;49.006;8.514;2023-03-29T12:02:15;4.10;;;2.40;;
7527;SDS011;3805;49.006;8.514;2023-03-29T12:05:09;5.43;;;2.40;;
7527;SDS011;3805;49.006;8.514;2023-03-29T12:07:59;2.30;;;2.10;;
7527;SDS011;3805;49.006;8.514;2023-03-29T12:10:52;2.37;;;2.13;;
7527;SDS011;3805;49.006;8.514;2023-03-29T12:13:46;2.30;;;2.10;;
7527;SDS011;3805;49.006;8.514;2023-03-29T12:16:38;3.23;;;2.40;;
7527;SDS011;3805;49.006;8.514;2023-03-29T12:19:30;2.90;;;1.80;;
7527;SDS011;3805;49.006;8.514;2023-03-29T12:22:27;3.10;;;2.00;;
7527;SDS011;3805;49.006;8.514;2023-03-29T12:25:16;2.23;;;2.03;;
7527;SDS011;3805;49.006;8.514;2023-03-29T12:28:17;2.23;;;2.07;;
7527;SDS011;3805;49.006;8.514;2023-03-29T12:31:14;3.70;;;2.50;;
7527;SDS011;3805;49.006;8.514;2023-03-29T12:34:10;8.63;;;2.70;;
7527;SDS011;3805;49.006;8.514;2023-03-29T12:40:19;2.87;;;2.67;;
7527;SDS011;3805;49.006;8.514;2023-03-29T12:43:14;2.97;;;2.43;;
7527;SDS011;3805;49.006;8.514;2023-03-29T12:46:07;3.00;;;2.70;;
7527;SDS011;3805;49.006;8.514;2023-03-29T12:48:56;6.63;;;2.53;;
7527;SDS011;3805;49.006;8.514;2023-03-29T12:51:51;2.67;;;2.47;;
7527;SDS011;3805;49.006;8.514;2023-03-29T12:54:50;5.50;;;2.60;;
7527;SDS011;3805;49.006;8.514;2023-03-29T12:57:41;3.57;;;2.53;;
7527;SDS011;3805;49.006;8.514;2023-03-29T13:00:41;2.40;;;2.30;;
7527;SDS011;3805;49.006;8.514;2023-03-29T13:03:34;4.57;;;2.90;;
7527;SDS011;3805;49.006;8.514;2023-03-29T13:06:29;5.33;;;2.43;;
7527;SDS011;3805;49.006;8.514;2023-03-29T13:09:20;3.93;;;2.37;;
7527;SDS011;3805;49.006;8.514;2023-03-29T13:12:12;4.17;;;2.70;;
7527;SDS011;3805;49.006;8.514;2023-03-29T13:15:20;2.50;;;2.30;;
7527;SDS011;3805;49.006;8.514;2023-03-29T13:18:15;4.10;;;2.10;;
7527;SDS011;3805;49.006;8.514;2023-03-29T13:21:21;5.07;;;2.30;;
7527;SDS011;3805;49.006;8.514;2023-03-29T13:24:19;6.47;;;2.23;;
7527;SDS011;3805;49.006;8.514;2023-03-29T13:27:19;3.10;;;2.30;;
7527;SDS011;3805;49.006;8.514;2023-03-29T13:30:17;3.00;;;2.27;;
7527;SDS011;3805;49.006;8.514;2023-03-29T13:33:16;3.20;;;2.63;;
7527;SDS011;3805;49.006;8.514;2023-03-29T13:36:13;2.50;;;1.90;;
7527;SDS011;3805;49.006;8.514;2023-03-29T13:39:04;4.43;;;2.80;;
7527;SDS011;3805;49.006;8.514;2023-03-29T13:42:04;4.83;;;2.57;;
7527;SDS011;3805;49.006;8.514;2023-03-29T13:45:03;2.30;;;2.10;;
7527;SDS011;3805;49.006;8.514;2023-03-29T13:47:59;4.70;;;2.50;;
7527;SDS011;3805;49.006;8.514;2023-03-29T13:50:54;2.50;;;2.30;;
7527;SDS011;3805;49.006;8.514;2023-03-29T13:53:44;3.27;;;2.60;;
7527;SDS011;3805;49.006;8.514;2023-03-29T13:56:37;5.33;;;2.90;;
7527;SDS011;3805;49.006;8.514;2023-03-29T13:59:34;6.27;;;3.00;;
7527;SDS011;3805;49.006;8.514;2023-03-29T14:02:33;4.27;;;2.97;;
7527;SDS011;3805;49.006;8.514;2023-03-29T14:05:26;7.80;;;3.40;;
7527;SDS011;3805;49.006;8.514;2023-03-29T14:08:20;4.53;;;3.00;;
7527;SDS011;3805;49.006;8.514;2023-03-29T14:11:19;3.33;;;3.03;;
7527;SDS011;3805;49.006;8.514;2023-03-29T14:14:09;2.53;;;2.00;;
7527;SDS011;3805;49.006;8.514;2023-03-29T14:16:58;5.03;;;2.60;;
7527;SDS011;3805;49.006;8.514;2023-03-29T14:19:48;2.80;;;2.37;;
7527;SDS011;3805;49.006;8.514;2023-03-29T14:22:37;4.33;;;2.40;;
7527;SDS011;3805;49.006;8.514;2023-03-29T14:25:27;4.03;;;2.87;;
7527;SDS011;3805;49.006;8.514;2023-03-29T14:28:20;3.13;;;2.80;;
7527;SDS011;3805;49.006;8.514;2023-03-29T14:31:15;3.30;;;2.67;;
7527;SDS011;3805;49.006;8.514;2023-03-29T14:34:05;4.43;;;2.90;;
7527;SDS011;3805;49.006;8.514;2023-03-29T14:36:54;3.03;;;2.77;;
7527;SDS011;3805;49.006;8.514;2023-03-29T14:39:44;3.80;;;2.80;;
7527;SDS011;3805;49.006;8.514;2023-03-29T14:42:34;4.17;;;2.67;;
7527;SDS011;3805;49.006;8.514;2023-03-29T14:45:24;2.50;;;2.30;;
7527;SDS011;3805;49.006;8.514;2023-03-29T14:48:13;2.83;;;2.47;;
7527;SDS011;3805;49.006;8.514;2023-03-29T14:51:02;2.83;;;2.53;;
7527;SDS011;3805;49.006;8.514;2023-03-29T14:53:52;3.87;;;2.70;;
7527;SDS011;3805;49.006;8.514;2023-03-29T14:56:40;2.73;;;2.50;;
7527;SDS011;3805;49.006;8.514;2023-03-29T14:59:34;4.20;;;2.60;;
7527;SDS011;3805;49.006;8.514;2023-03-29T15:02:25;4.30;;;2.67;;
7527;SDS011;3805;49.006;8.514;2023-03-29T15:05:21;3.27;;;2.87;;
7527;SDS011;3805;49.006;8.514;2023-03-29T15:08:12;2.93;;;2.73;;
7527;SDS011;3805;49.006;8.514;2023-03-29T15:11:09;4.43;;;2.90;;
7527;SDS011;3805;49.006;8.514;2023-03-29T15:14:00;3.53;;;3.10;;
7527;SDS011;3805;49.006;8.514;2023-03-29T15:16:51;3.63;;;2.43;;
7527;SDS011;3805;49.006;8.514;2023-03-29T15:19:43;3.73;;;2.70;;
7527;SDS011;3805;49.006;8.514;2023-03-29T15:22:32;3.23;;;2.93;;
7527;SDS011;3805;49.006;8.514;2023-03-29T15:25:21;2.60;;;2.40;;
7527;SDS011;3805;49.006;8.514;2023-03-29T15:28:19;3.13;;;2.83;;
7527;SDS011;3805;49.006;8.514;2023-03-29T15:31:16;4.60;;;3.20;;
7527;SDS011;3805;49.006;8.514;2023-03-29T15:34:09;3.97;;;2.43;;
7527;SDS011;3805;49.006;8.514;2023-03-29T15:36:58;4.17;;;2.83;;
7527;SDS011;3805;49.006;8.514;2023-03-29T15:39:48;4.50;;;3.50;;
7527;SDS011;3805;49.006;8.514;2023-03-29T15:42:37;3.43;;;2.87;;
7527;SDS011;3805;49.006;8.514;2023-03-29T15:45:25;2.47;;;2.27;;
7527;SDS011;3805;49.006;8.514;2023-03-29T15:48:21;3.60;;;2.40;;
7527;SDS011;3805;49.006;8.514;2023-03-29T15:51:12;3.30;;;3.00;;
7527;SDS011;3805;49.006;8.514;2023-03-29T15:54:01;3.30;;;2.60;;
7527;SDS011;3805;49.006;8.514;2023-03-29T15:56:50;2.97;;;2.47;;
7527;SDS011;3805;49.006;8.514;2023-03-29T15:59:40;3.20;;;2.90;;
7527;SDS011;3805;49.006;8.514;2023-03-29T16:02:29;2.87;;;2.57;;
7527;SDS011;3805;49.006;8.514;2023-03-29T16:05:18;2.47;;;2.27;;
7527;SDS011;3805;49.006;8.514;2023-03-29T16:08:09;4.70;;;2.77;;
7527;SDS011;3805;49.006;8.514;2023-03-29T16:10:58;3.50;;;2.73;;
7527;SDS011;3805;49.006;8.514;2023-03-29T16:13:46;3.00;;;2.67;;
7527;SDS011;3805;49.006;8.514;2023-03-29T16:16:35;3.03;;;2.70;;
7527;SDS011;3805;49.006;8.514;2023-03-29T16:19:24;3.90;;;2.60;;
7527;SDS011;3805;49.006;8.514;2023-03-29T16:22:13;3.07;;;2.50;;
7527;SDS011;3805;49.006;8.514;2023-03-29T16:25:03;3.47;;;3.17;;
7527;SDS011;3805;49.006;8.514;2023-03-29T16:27:54;4.00;;;3.70;;
7527;SDS011;3805;49.006;8.514;2023-03-29T16:30:42;7.20;;;4.13;;
7527;SDS011;3805;49.006;8.514;2023-03-29T16:33:31;4.07;;;3.40;;
7527;SDS011;3805;49.006;8.514;2023-03-29T16:36:20;5.33;;;3.87;;
7527;SDS011;3805;49.006;8.514;2023-03-29T16:39:08;9.90;;;4.20;;
7527;SDS011;3805;49.006;8.514;2023-03-29T16:42:00;3.47;;;3.17;;
7527;SDS011;3805;49.006;8.514;2023-03-29T16:44:48;3.60;;;3.30;;
7527;SDS011;3805;49.006;8.514;2023-03-29T16:47:37;3.73;;;3.37;;
7527;SDS011;3805;49.006;8.514;2023-03-29T16:50:26;3.40;;;3.10;;
7527;SDS011;3805;49.006;8.514;2023-03-29T16:53:15;4.07;;;3.40;;
7527;SDS011;3805;49.006;8.514;2023-03-29T16:56:04;3.77;;;3.40;;
7527;SDS011;3805;49.006;8.514;2023-03-29T16:58:55;5.90;;;4.43;;
7527;SDS011;3805;49.006;8.514;2023-03-29T17:01:43;4.17;;;3.43;;
7527;SDS011;3805;49.006;8.514;2023-03-29T17:04:32;8.37;;;3.70;;
7527;SDS011;3805;49.006;8.514;2023-03-29T17:07:21;5.90;;;4.20;;
7527;SDS011;3805;49.006;8.514;2023-03-29T17:10:09;5.63;;;3.27;;
7527;SDS011;3805;49.006;8.514;2023-03-29T17:12:58;6.07;;;3.50;;
7527;SDS011;3805;49.006;8.514;2023-03-29T17:15:49;6.13;;;4.47;;
7527;SDS011;3805;49.006;8.514;2023-03-29T17:18:38;4.00;;;3.60;;
7527;SDS011;3805;49.006;8.514;2023-03-29T17:21:26;6.80;;;4.20;;
7527;SDS011;3805;49.006;8.514;2023-03-29T17:24:15;6.40;;;4.60;;
7527;SDS011;3805;49.006;8.514;2023-03-29T17:27:04;5.53;;;4.43;;
7527;SDS011;3805;49.006;8.514;2023-03-29T17:29:53;4.30;;;3.80;;
7527;SDS011;3805;49.006;8.514;2023-03-29T17:32:43;5.03;;;3.70;;
7527;SDS011;3805;49.006;8.514;2023-03-29T17:35:31;3.53;;;3.20;;
7527;SDS011;3805;49.006;8.514;2023-03-29T17:38:20;4.07;;;3.07;;
7527;SDS011;3805;49.006;8.514;2023-03-29T17:41:09;3.77;;;3.40;;
7527;SDS011;3805;49.006;8.514;2023-03-29T17:43:57;5.90;;;3.70;;
7527;SDS011;3805;49.006;8.514;2023-03-29T17:46:47;3.90;;;2.80;;
7527;SDS011;3805;49.006;8.514;2023-03-29T17:49:37;7.20;;;3.83;;
7527;SDS011;3805;49.006;8.514;2023-03-29T17:52:25;5.07;;;4.57;;
7527;SDS011;3805;49.006;8.514;2023-03-29T17:55:14;8.10;;;4.80;;
7527;SDS011;3805;49.006;8.514;2023-03-29T17:58:02;4.47;;;4.03;;
7527;SDS011;3805;49.006;8.514;2023-03-29T18:00:51;6.73;;;4.30;;
7527;SDS011;3805;49.006;8.514;2023-03-29T18:03:40;6.37;;;4.10;;